aviador You're here:

VTSG Decoded Metar

KRBI in THAILAND
Report Time2017-12-17 06:00:00
UTC Time2017-12-17 06:13:02
Flight Rules mvfr MVFR
Wind100° at 04 kt
W.Decomp.*RWY 14: 3.1 kt HW 2.6 kt LCW
W.Rank100° ranks 17
Current wind is below 100° avg. (4.7)
Visibility9999 m
Phenomena:N/A
Clouds:Broken 020 Hf
Expected CloudBase > 2,800 ft AGL from Temp-Dew spread
Ceiling2,000 ft
Temp30°C (ISA +15)
Dew Point23°C (66% RH)
Heat Index34.1°C
QNH1013 hPa
Density Alt2,188 ft
Elevation82 ft
Report Wrong Elevation
Raw Report
VTSG 170600Z 10004KT 040V150 9999 BKN020 30/23 Q1013=

Extra information for VTSG:More info

Metar Taf Metar & Taf Last 4 Metars F.Rules Stats Wind Profile Meteogram Temp Stats Airport Information Weather charts Add Link Nearby VenuesMetar ALERT Operation Metar Decoded Social comments